createdAt,value
2023-05-25T00:01:03.093Z,9.80
2023-05-25T00:05:08.297Z,9.90
2023-05-25T00:09:10.271Z,9.40
2023-05-25T00:13:12.254Z,9.30
2023-05-25T00:17:14.493Z,8.80
2023-05-25T00:21:16.534Z,9.10
2023-05-25T00:25:20.880Z,9.60
2023-05-25T00:29:23.144Z,9.00
2023-05-25T00:33:25.289Z,8.80
2023-05-25T00:37:28.598Z,8.80
2023-05-25T00:41:31.508Z,9.20
2023-05-25T00:45:33.474Z,8.30
2023-05-25T00:49:36.965Z,8.90
2023-05-25T00:53:38.982Z,8.20
2023-05-25T00:57:46.041Z,8.00
2023-05-25T01:01:50.155Z,8.20
2023-05-25T01:05:55.229Z,8.80
2023-05-25T01:10:00.277Z,9.20
2023-05-25T01:14:03.339Z,8.60
2023-05-25T01:18:05.787Z,9.00
2023-05-25T01:22:07.674Z,8.80
2023-05-25T01:26:15.679Z,9.20
2023-05-25T01:30:19.184Z,9.30
2023-05-25T01:34:21.966Z,9.10
2023-05-25T01:38:24.133Z,9.50
2023-05-25T01:42:26.172Z,9.00
2023-05-25T01:46:38.014Z,8.70
2023-05-25T01:50:43.055Z,8.40
2023-05-25T01:54:53.322Z,9.00
2023-05-25T01:58:57.865Z,9.00
2023-05-25T02:03:03.975Z,8.40
2023-05-25T02:07:06.397Z,8.30
2023-05-25T02:11:08.429Z,8.60
2023-05-25T02:15:11.794Z,8.00
2023-05-25T02:19:15.020Z,8.00
2023-05-25T02:23:18.955Z,7.80
2023-05-25T02:27:20.982Z,8.40
2023-05-25T02:31:23.465Z,8.40
2023-05-25T02:35:25.806Z,8.70
2023-05-25T02:39:28.556Z,9.00
2023-05-25T02:43:32.664Z,9.60
2023-05-25T02:47:34.638Z,8.80
2023-05-25T02:51:37.208Z,9.00
2023-05-25T02:55:40.526Z,9.60
2023-05-25T02:59:45.338Z,9.60
2023-05-25T03:03:52.322Z,9.60
2023-05-25T03:07:55.684Z,9.60
2023-05-25T03:11:57.770Z,9.70
2023-05-25T03:15:59.811Z,9.40
2023-05-25T03:20:01.865Z,9.50
2023-05-25T03:24:04.354Z,9.80
2023-05-25T03:28:07.120Z,9.60
2023-05-25T03:32:09.130Z,9.70
2023-05-25T03:36:12.377Z,10.00
2023-05-25T03:40:14.568Z,10.00
2023-05-25T03:44:16.769Z,9.80
2023-05-25T03:48:18.991Z,8.90
2023-05-25T03:52:21.837Z,9.00
2023-05-25T03:56:23.809Z,9.10
2023-05-25T04:00:25.682Z,9.20
2023-05-25T04:04:28.302Z,9.60
2023-05-25T04:08:30.438Z,9.50
2023-05-25T04:12:33.595Z,9.60
2023-05-25T04:16:35.743Z,9.60
2023-05-25T04:20:38.421Z,8.80
2023-05-25T04:24:41.919Z,9.50
2023-05-25T04:28:44.214Z,10.20
2023-05-25T04:32:57.633Z,10.30
2023-05-25T04:37:27.436Z,10.10
2023-05-25T04:41:31.265Z,10.10
2023-05-25T04:45:37.226Z,10.40
2023-05-25T04:49:39.937Z,10.20
2023-05-25T04:53:43.377Z,9.40
2023-05-25T04:57:45.241Z,9.90
2023-05-25T05:01:47.332Z,10.10
2023-05-25T05:05:52.009Z,9.80
2023-05-25T05:09:59.601Z,9.90
2023-05-25T05:14:02.458Z,9.90
2023-05-25T05:18:06.227Z,10.10
2023-05-25T05:22:09.760Z,10.40
2023-05-25T05:26:15.162Z,10.70
2023-05-25T05:30:17.404Z,10.90
2023-05-25T05:34:20.548Z,10.90
2023-05-25T05:38:22.668Z,10.60
2023-05-25T05:42:24.923Z,9.90
2023-05-25T05:46:27.055Z,10.10
2023-05-25T05:50:29.095Z,10.70
2023-05-25T05:54:32.037Z,11.20
2023-05-25T05:58:39.125Z,10.70
2023-05-25T06:02:41.976Z,10.00
2023-05-25T06:06:47.739Z,9.80
2023-05-25T06:10:49.717Z,10.70
2023-05-25T06:14:52.188Z,11.20
2023-05-25T06:18:54.387Z,11.40
2023-05-25T06:22:56.440Z,10.90
2023-05-25T06:26:58.333Z,11.00
2023-05-25T06:31:00.875Z,10.90
2023-05-25T06:35:02.971Z,10.20
2023-05-25T06:39:05.107Z,10.60
2023-05-25T06:43:07.610Z,10.30
2023-05-25T06:47:18.031Z,10.40
2023-05-25T06:51:20.085Z,10.90
2023-05-25T06:55:22.076Z,11.20
2023-05-25T06:59:23.922Z,10.90
2023-05-25T07:03:26.087Z,10.80
2023-05-25T07:07:28.098Z,10.90
2023-05-25T07:11:29.968Z,9.80
2023-05-25T07:15:31.778Z,10.10
2023-05-25T07:19:33.759Z,10.50
2023-05-25T07:23:36.918Z,11.10
2023-05-25T07:27:40.003Z,10.70
2023-05-25T07:31:41.964Z,11.20
2023-05-25T07:35:44.033Z,11.20
2023-05-25T07:39:46.325Z,11.40
2023-05-25T07:43:48.275Z,11.90
2023-05-25T07:47:50.538Z,11.60
2023-05-25T07:51:52.514Z,11.60
2023-05-25T07:55:54.337Z,11.80
2023-05-25T07:59:56.397Z,12.20
2023-05-25T08:03:58.725Z,11.80
2023-05-25T08:08:01.005Z,12.00
2023-05-25T08:12:23.962Z,12.00
2023-05-25T08:16:24.893Z,11.80
2023-05-25T08:20:26.932Z,12.30
2023-05-25T08:24:28.956Z,12.80
2023-05-25T08:28:31.108Z,13.20
2023-05-25T08:32:33.378Z,12.90
2023-05-25T08:36:36.204Z,12.90
2023-05-25T08:40:43.306Z,12.90
2023-05-25T08:44:45.453Z,12.00
2023-05-25T08:48:49.237Z,12.80
2023-05-25T08:52:53.334Z,14.00
2023-05-25T08:57:29.607Z,14.30
2023-05-25T09:01:36.600Z,14.30
2023-05-25T09:05:38.793Z,14.30
2023-05-25T09:09:41.496Z,14.30
2023-05-25T09:13:43.611Z,14.00
2023-05-25T09:17:45.707Z,13.10
2023-05-25T09:21:47.648Z,13.10
2023-05-25T09:25:51.616Z,12.70
2023-05-25T09:29:53.749Z,13.50
2023-05-25T09:33:59.982Z,14.00
2023-05-25T09:38:02.130Z,14.00
2023-05-25T09:42:04.782Z,14.50
2023-05-25T09:46:06.880Z,14.20
2023-05-25T09:50:09.373Z,15.00
2023-05-25T09:54:11.951Z,15.40
2023-05-25T09:58:13.918Z,15.70
2023-05-25T10:02:16.006Z,15.50
2023-05-25T10:06:18.440Z,15.80
2023-05-25T10:10:20.581Z,16.30
2023-05-25T10:14:29.376Z,16.80
2023-05-25T10:18:36.063Z,16.20
2023-05-25T10:22:58.963Z,16.40
2023-05-25T10:27:14.737Z,16.50
2023-05-25T10:31:28.314Z,16.60
2023-05-25T10:35:32.842Z,16.00
2023-05-25T10:39:43.451Z,16.30
2023-05-25T10:43:46.276Z,17.00
2023-05-25T10:47:48.757Z,15.80
2023-05-25T10:51:58.399Z,15.70
2023-05-25T10:56:00.304Z,15.80
2023-05-25T11:00:06.469Z,16.50
2023-05-25T11:04:11.725Z,16.60
2023-05-25T11:08:16.501Z,17.30
2023-05-25T11:12:20.991Z,17.10
2023-05-25T11:16:34.523Z,17.50
2023-05-25T11:20:38.060Z,17.70
2023-05-25T11:24:40.108Z,17.00
2023-05-25T11:28:48.593Z,16.80
2023-05-25T11:32:51.018Z,17.40
2023-05-25T11:37:03.883Z,17.80
2023-05-25T11:41:05.932Z,18.00
2023-05-25T11:45:12.096Z,17.00
2023-05-25T11:49:14.186Z,17.60
2023-05-25T11:53:16.312Z,16.80
2023-05-25T11:57:26.443Z,16.60
2023-05-25T12:01:31.869Z,16.50
2023-05-25T12:05:40.241Z,17.50
2023-05-25T12:09:42.340Z,16.50
2023-05-25T12:13:44.744Z,16.70
2023-05-25T12:17:47.771Z,17.80
2023-05-25T12:21:51.450Z,17.20
2023-05-25T12:26:13.945Z,17.50
2023-05-25T12:30:16.268Z,17.70
2023-05-25T12:34:19.571Z,17.10
2023-05-25T12:38:22.091Z,16.70
2023-05-25T12:42:27.507Z,17.30
2023-05-25T12:46:29.814Z,17.70
2023-05-25T12:50:32.618Z,17.90
2023-05-25T12:54:45.788Z,18.60
2023-05-25T12:58:47.748Z,19.00
2023-05-25T13:02:51.018Z,18.20
2023-05-25T13:06:53.402Z,17.70
2023-05-25T13:10:56.259Z,17.90
2023-05-25T13:14:58.206Z,17.50
2023-05-25T13:19:01.010Z,17.80
2023-05-25T13:23:03.362Z,17.10
2023-05-25T13:27:05.575Z,18.10
2023-05-25T13:31:07.560Z,18.70
2023-05-25T13:35:17.463Z,18.90
2023-05-25T13:39:19.838Z,18.30
2023-05-25T13:43:22.004Z,18.10
2023-05-25T13:47:24.065Z,17.40
2023-05-25T13:51:26.794Z,17.40
2023-05-25T13:55:28.721Z,17.60
2023-05-25T13:59:30.629Z,18.00
2023-05-25T14:03:33.209Z,18.40
2023-05-25T14:07:35.886Z,17.70
2023-05-25T14:11:38.009Z,18.10
2023-05-25T14:15:40.000Z,17.80
2023-05-25T14:19:42.050Z,18.30
2023-05-25T14:23:44.374Z,18.70
2023-05-25T14:27:46.544Z,18.70
2023-05-25T14:31:48.682Z,18.10
2023-05-25T14:35:50.895Z,17.70
2023-05-25T14:39:52.834Z,17.90
2023-05-25T14:43:54.801Z,17.70
2023-05-25T14:48:11.788Z,17.70
2023-05-25T14:52:17.836Z,17.80
2023-05-25T14:56:21.499Z,17.40
2023-05-25T15:00:23.441Z,18.00
2023-05-25T15:04:27.157Z,18.30
2023-05-25T15:08:29.384Z,18.10
2023-05-25T15:12:31.425Z,17.30
2023-05-25T15:16:33.554Z,17.40
2023-05-25T15:20:35.916Z,18.10
2023-05-25T15:24:37.955Z,18.50
2023-05-25T15:28:40.034Z,18.80
2023-05-25T15:32:42.300Z,18.80
2023-05-25T15:36:44.204Z,17.90
2023-05-25T15:40:46.150Z,18.10
2023-05-25T15:44:48.184Z,18.20
2023-05-25T15:48:50.215Z,17.60
2023-05-25T15:52:52.341Z,17.50
2023-05-25T15:56:54.531Z,17.60
2023-05-25T16:00:56.366Z,17.70
2023-05-25T16:04:58.552Z,18.40
2023-05-25T16:09:00.998Z,18.30
2023-05-25T16:13:02.951Z,18.20
2023-05-25T16:17:04.979Z,18.60
2023-05-25T16:21:06.846Z,18.70
2023-05-25T16:25:09.191Z,19.00
2023-05-25T16:29:11.201Z,18.90
2023-05-25T16:33:13.163Z,18.70
2023-05-25T16:37:15.004Z,18.70
2023-05-25T16:41:17.051Z,19.20
2023-05-25T16:45:20.958Z,19.60
2023-05-25T16:49:23.118Z,18.60
2023-05-25T16:53:25.820Z,19.10
2023-05-25T16:57:28.033Z,19.60
2023-05-25T17:01:29.967Z,19.50
2023-05-25T17:05:32.117Z,19.10
2023-05-25T17:09:34.065Z,18.30
2023-05-25T17:13:36.018Z,18.50
2023-05-25T17:17:38.020Z,18.80
2023-05-25T17:21:40.067Z,18.80
2023-05-25T17:25:42.554Z,18.70
2023-05-25T17:29:44.809Z,18.80
2023-05-25T17:33:46.873Z,18.10
2023-05-25T17:37:48.770Z,18.30
2023-05-25T17:41:50.855Z,17.50
2023-05-25T17:45:53.190Z,17.90
2023-05-25T17:49:55.138Z,18.00
2023-05-25T17:53:57.233Z,17.90
2023-05-25T17:57:59.339Z,18.40
2023-05-25T18:02:01.471Z,18.10
2023-05-25T18:06:03.660Z,18.60
2023-05-25T18:10:05.975Z,18.00
2023-05-25T18:14:08.031Z,17.90
2023-05-25T18:18:10.068Z,18.00
2023-05-25T18:22:12.272Z,18.10
2023-05-25T18:26:14.270Z,18.10
2023-05-25T18:30:16.438Z,18.40
2023-05-25T18:34:18.466Z,18.50
2023-05-25T18:38:20.313Z,18.50
2023-05-25T18:42:22.230Z,18.40
2023-05-25T18:46:25.390Z,18.20
2023-05-25T18:50:27.381Z,18.20
2023-05-25T18:54:29.826Z,18.00
2023-05-25T18:58:31.911Z,17.90
2023-05-25T19:02:36.145Z,17.90
2023-05-25T19:06:38.133Z,17.60
2023-05-25T19:10:41.724Z,17.40
2023-05-25T19:14:44.820Z,17.50
2023-05-25T19:18:47.696Z,17.40
2023-05-25T19:22:49.632Z,17.40
2023-05-25T19:26:51.735Z,17.10
2023-05-25T19:30:53.789Z,17.10
2023-05-25T19:34:55.878Z,17.00
2023-05-25T19:38:57.688Z,16.80
2023-05-25T19:42:59.662Z,16.80
2023-05-25T19:47:01.575Z,16.70
2023-05-25T19:51:03.471Z,16.60
2023-05-25T19:55:06.278Z,16.50
2023-05-25T19:59:08.318Z,16.40
2023-05-25T20:03:10.864Z,16.20
2023-05-25T20:07:13.580Z,16.10
2023-05-25T20:11:15.704Z,15.70
2023-05-25T20:15:17.841Z,15.50
2023-05-25T20:19:22.298Z,15.50
2023-05-25T20:23:24.383Z,15.50
2023-05-25T20:27:27.072Z,15.40
2023-05-25T20:31:29.128Z,15.20
2023-05-25T20:35:31.131Z,14.90
2023-05-25T20:39:33.134Z,14.80
2023-05-25T20:43:35.132Z,15.00
2023-05-25T20:47:39.304Z,15.00
2023-05-25T20:51:44.393Z,15.00
2023-05-25T20:55:47.370Z,15.00
2023-05-25T20:59:49.384Z,15.00
2023-05-25T21:03:51.695Z,14.80
2023-05-25T21:07:53.664Z,14.60
2023-05-25T21:11:55.947Z,14.60
2023-05-25T21:15:59.555Z,14.60
2023-05-25T21:20:01.404Z,14.50
2023-05-25T21:24:03.885Z,14.30
2023-05-25T21:28:06.903Z,14.00
2023-05-25T21:32:08.942Z,14.00
2023-05-25T21:36:11.281Z,13.90
2023-05-25T21:40:13.259Z,13.80
2023-05-25T21:44:15.576Z,13.80
2023-05-25T21:48:17.815Z,13.80
2023-05-25T21:52:19.844Z,13.60
2023-05-25T21:56:24.120Z,13.70
2023-05-25T22:00:26.258Z,13.60
2023-05-25T22:04:28.225Z,13.50
2023-05-25T22:08:30.338Z,13.50
2023-05-25T22:12:32.232Z,13.70
2023-05-25T22:16:34.255Z,13.60
2023-05-25T22:20:38.852Z,13.60
2023-05-25T22:24:40.897Z,13.60
2023-05-25T22:28:42.893Z,13.60
2023-05-25T22:32:45.096Z,13.30
2023-05-25T22:36:46.994Z,13.20
2023-05-25T22:40:49.094Z,13.30
2023-05-25T22:44:51.344Z,13.40
2023-05-25T22:48:53.425Z,13.30
2023-05-25T22:52:55.656Z,13.20
2023-05-25T22:56:57.741Z,13.10
2023-05-25T23:00:59.548Z,12.80
2023-05-25T23:05:01.438Z,13.00
2023-05-25T23:09:03.524Z,13.00
2023-05-25T23:13:06.316Z,13.10
2023-05-25T23:17:08.409Z,13.00
2023-05-25T23:21:10.785Z,13.10
2023-05-25T23:25:12.760Z,13.00
2023-05-25T23:29:14.733Z,12.50
2023-05-25T23:33:18.411Z,12.50
2023-05-25T23:37:20.769Z,12.40
2023-05-25T23:41:23.161Z,12.50
2023-05-25T23:45:25.132Z,12.60
2023-05-25T23:49:27.088Z,12.80
2023-05-25T23:53:28.980Z,12.60
2023-05-25T23:57:31.019Z,12.60
